Time;durP1;ratioP1;P1;durP2;ratioP2;P2;SDS_P1;SDS_P2;PMS_P1;PMS_P2;Temp;Humidity;BMP_temperature;BMP_pressure;BME280_temperature;BME280_humidity;BME280_pressure;Samples;Min_cycle;Max_cycle;Signal;HPM_P1;HPM_P2
2022/12/26 00:01:36;;;;;;;9.77;1.17;;;10.70;99.90;;;;;;5115552;27;20026;-68
2022/12/26 00:04:03;;;;;;;18.40;2.20;;;10.70;99.90;;;;;;5110503;28;20028;-69
2022/12/26 00:06:30;;;;;;;15.20;2.50;;;10.70;99.90;;;;;;5092229;28;20044;-68
2022/12/26 00:08:56;;;;;;;13.98;1.95;;;10.60;99.90;;;;;;5080824;28;20082;-69
2022/12/26 00:11:23;;;;;;;12.77;2.63;;;10.50;99.90;;;;;;5086503;28;20107;-68
2022/12/26 00:13:53;;;;;;;13.13;1.77;;;10.60;99.90;;;;;;5096070;28;20035;-69
2022/12/26 00:16:20;;;;;;;15.38;2.38;;;10.60;99.90;;;;;;5099560;28;20471;-68
2022/12/26 00:18:46;;;;;;;10.60;2.55;;;10.70;99.90;;;;;;5104292;28;20038;-69
2022/12/26 00:21:14;;;;;;;13.30;1.67;;;10.70;99.90;;;;;;5098130;28;20020;-69
2022/12/26 00:23:40;;;;;;;17.23;2.55;;;10.70;99.90;;;;;;5094478;28;20016;-70
2022/12/26 00:26:17;;;;;;;13.98;2.63;;;10.80;99.90;;;;;;5090513;28;20072;-68
2022/12/26 00:28:43;;;;;;;17.67;2.25;;;10.80;99.90;;;;;;5096256;28;20032;-69
2022/12/26 00:31:30;;;;;;;14.20;2.05;;;10.80;99.90;;;;;;5097024;28;20028;-68
2022/12/26 00:33:57;;;;;;;21.50;4.75;;;10.80;99.90;;;;;;5078731;28;20051;-69
2022/12/26 00:36:29;;;;;;;13.57;1.83;;;10.80;99.90;;;;;;5086758;28;20035;-68
2022/12/26 00:38:57;;;;;;;10.70;1.95;;;10.90;99.90;;;;;;5084056;28;20033;-68
2022/12/26 00:41:23;;;;;;;19.65;4.18;;;10.90;99.90;;;;;;5091392;28;20032;-69
2022/12/26 00:43:49;;;;;;;12.50;2.85;;;10.90;99.90;;;;;;5087710;28;20506;-69
2022/12/26 00:46:15;;;;;;;22.98;4.32;;;10.90;99.90;;;;;;5085223;28;20020;-68
2022/12/26 00:48:41;;;;;;;18.00;2.85;;;10.70;99.90;;;;;;5087947;28;20028;-68
2022/12/26 00:51:07;;;;;;;17.23;2.83;;;10.70;99.90;;;;;;5091677;28;20056;-68
2022/12/26 00:53:38;;;;;;;14.23;3.78;;;10.70;99.90;;;;;;5089182;28;20062;-69
2022/12/26 00:56:05;;;;;;;16.75;3.65;;;10.80;99.90;;;;;;5087150;28;20035;-69
2022/12/26 00:58:30;;;;;;;19.63;2.70;;;10.80;99.90;;;;;;5087301;28;20089;-69
2022/12/26 01:01:05;;;;;;;23.75;6.22;;;10.80;99.90;;;;;;5088784;28;20024;-69
2022/12/26 01:03:31;;;;;;;13.70;1.92;;;10.70;99.90;;;;;;5079781;28;20028;-67
2022/12/26 01:05:57;;;;;;;21.00;2.63;;;10.70;99.90;;;;;;5101122;28;20117;-69
2022/12/26 01:08:22;;;;;;;15.07;1.73;;;10.60;99.90;;;;;;5099260;28;20024;-69
2022/12/26 01:10:48;;;;;;;22.55;4.22;;;10.60;99.90;;;;;;5108680;28;20104;-69
2022/12/26 01:13:14;;;;;;;19.23;2.05;;;10.70;99.90;;;;;;5108889;28;20016;-68
2022/12/26 01:15:50;;;;;;;17.67;2.55;;;10.80;99.90;;;;;;5109841;28;20425;-69
2022/12/26 01:18:15;;;;;;;13.68;2.38;;;10.90;99.90;;;;;;5089161;28;20045;-69
2022/12/26 01:20:41;;;;;;;14.18;3.80;;;10.90;99.90;;;;;;5106452;28;20475;-69
2022/12/26 01:23:07;;;;;;;16.08;3.65;;;10.80;99.90;;;;;;5107413;28;20027;-69
2022/12/26 01:25:32;;;;;;;13.38;2.90;;;10.80;99.90;;;;;;5109503;28;20471;-68
2022/12/26 01:27:58;;;;;;;13.18;2.00;;;10.80;99.90;;;;;;5101645;28;20039;-68
2022/12/26 01:30:24;;;;;;;14.48;3.30;;;10.80;99.90;;;;;;5106421;28;20034;-69
2022/12/26 01:32:49;;;;;;;14.68;1.63;;;10.90;99.90;;;;;;5099893;28;20467;-69
2022/12/26 01:35:15;;;;;;;13.95;2.58;;;10.80;99.90;;;;;;5093132;28;20043;-68
2022/12/26 01:37:41;;;;;;;11.70;1.88;;;10.90;99.90;;;;;;5106250;28;20031;-68
2022/12/26 01:40:07;;;;;;;16.15;2.72;;;10.90;99.90;;;;;;5109113;28;20031;-68
2022/12/26 01:42:38;;;;;;;14.35;2.42;;;10.80;99.90;;;;;;5104113;28;20035;-68
2022/12/26 01:45:21;;;;;;;14.65;2.50;;;10.80;99.90;;;;;;5106584;28;20495;-69
2022/12/26 01:48:13;;;;;;;21.52;3.67;;;10.80;99.90;;;;;;5105850;28;20028;-69
2022/12/26 01:50:48;;;;;;;21.50;3.80;;;10.70;99.90;;;;;;5104251;28;20521;-68
2022/12/26 01:53:26;;;;;;;12.90;2.22;;;10.70;99.90;;;;;;5086153;28;20030;-69
2022/12/26 01:56:06;;;;;;;22.92;4.18;;;10.80;99.90;;;;;;5087958;28;20063;-68
2022/12/26 01:58:49;;;;;;;16.20;4.13;;;10.90;99.90;;;;;;5108101;28;20433;-68
2022/12/26 02:01:15;;;;;;;18.92;3.33;;;10.90;99.90;;;;;;5110248;28;20458;-69
2022/12/26 02:06:29;;;;;;;19.83;2.47;;;10.90;99.90;;;;;;5107509;28;20509;-66
2022/12/26 02:08:58;;;;;;;13.32;1.73;;;10.90;99.90;;;;;;5103290;28;20020;-68
2022/12/26 02:11:33;;;;;;;12.90;2.25;;;11.00;99.90;;;;;;5105939;28;20027;-68
2022/12/26 02:14:00;;;;;;;15.23;2.50;;;11.00;99.90;;;;;;5106797;28;20039;-69
2022/12/26 02:16:26;;;;;;;16.45;2.45;;;11.00;99.90;;;;;;5106644;28;20137;-69
2022/12/26 02:18:52;;;;;;;17.38;2.78;;;11.10;99.90;;;;;;5107265;28;20024;-68
2022/12/26 02:21:52;;;;;;;24.10;2.92;;;11.00;99.90;;;;;;5105913;28;20062;-68
2022/12/26 02:24:36;;;;;;;14.50;2.13;;;11.00;99.90;;;;;;5109077;28;20077;-70
2022/12/26 02:27:08;;;;;;;17.58;1.98;;;10.90;99.90;;;;;;5107120;28;20057;-69
2022/12/26 02:29:58;;;;;;;15.75;2.17;;;10.90;99.90;;;;;;5100255;28;20160;-68
2022/12/26 02:32:52;;;;;;;19.42;2.50;;;10.80;99.90;;;;;;5111939;28;20068;-68
2022/12/26 02:35:36;;;;;;;21.00;1.88;;;10.70;99.90;;;;;;5108683;28;20085;-68
2022/12/26 02:38:20;;;;;;;21.70;2.65;;;10.80;99.90;;;;;;5105129;28;20464;-68
2022/12/26 02:41:19;;;;;;;21.55;2.33;;;10.90;99.90;;;;;;5106202;28;20059;-68
2022/12/26 02:47:07;;;;;;;20.35;3.83;;;10.90;99.90;;;;;;5097883;28;20043;-69
2022/12/26 03:13:09;;;;;;;18.30;2.30;;;10.90;99.90;;;;;;5108607;28;20028;-68
2022/12/26 03:17:18;;;;;;;18.23;2.25;;;11.10;99.90;;;;;;5100806;28;20057;-68
2022/12/26 03:18:18;;;;;;;15.23;2.70;;;11.10;99.90;;;;;;5106904;28;20042;-69
2022/12/26 03:20:45;;;;;;;14.80;2.03;;;11.20;99.90;;;;;;5111468;28;20035;-68
2022/12/26 03:23:16;;;;;;;21.38;2.70;;;11.10;99.90;;;;;;5088187;28;20055;-68
2022/12/26 03:28:42;;;;;;;14.23;2.38;;;11.20;99.90;;;;;;5118584;27;20039;-68
2022/12/26 03:31:13;;;;;;;17.80;3.45;;;11.20;99.90;;;;;;5096291;28;20035;-68
2022/12/26 03:36:32;;;;;;;15.57;2.75;;;11.10;99.90;;;;;;5110312;27;20055;-67
2022/12/26 03:39:18;;;;;;;22.42;2.75;;;11.00;99.90;;;;;;5115532;27;20027;-69
2022/12/26 04:20:17;;;;;;;14.43;1.88;;;10.30;99.90;;;;;;5109932;28;20038;-68
2022/12/26 04:45:51;;;;;;;13.07;1.55;;;9.90;99.90;;;;;;5106858;28;20072;-69
2022/12/26 04:51:01;;;;;;;15.68;2.50;;;9.90;99.90;;;;;;5106934;28;20076;-68
2022/12/26 04:53:27;;;;;;;12.95;3.05;;;9.80;99.90;;;;;;5092025;28;20162;-69
2022/12/26 04:55:52;;;;;;;15.32;2.28;;;9.80;99.90;;;;;;5107586;28;20105;-68
2022/12/26 04:58:18;;;;;;;16.10;1.98;;;9.80;99.90;;;;;;5111272;28;20028;-69
2022/12/26 05:00:44;;;;;;;10.38;1.40;;;9.80;99.90;;;;;;5109881;28;20387;-70
2022/12/26 05:11:30;;;;;;;8.95;1.20;;;9.70;99.90;;;;;;5110898;28;20123;-68
2022/12/26 05:13:56;;;;;;;9.00;1.35;;;9.60;99.90;;;;;;5104055;28;20032;-69
2022/12/26 05:30:25;;;;;;;2.10;0.40;;;9.70;99.90;;;;;;5105131;28;20043;-69
2022/12/26 05:35:36;;;;;;;6.45;0.52;;;9.70;99.90;;;;;;5103755;28;20046;-69
2022/12/26 05:38:03;;;;;;;2.42;0.28;;;9.70;99.90;;;;;;5092350;28;20016;-69
2022/12/26 05:40:29;;;;;;;6.72;0.70;;;9.80;99.90;;;;;;5110290;28;20027;-68
2022/12/26 05:42:54;;;;;;;3.65;0.25;;;9.80;99.90;;;;;;5110487;28;20016;-70
2022/12/26 05:45:20;;;;;;;2.38;0.98;;;9.70;99.90;;;;;;5108952;28;20034;-67
2022/12/26 05:47:46;;;;;;;2.75;0.32;;;9.50;99.90;;;;;;5106807;28;20024;-68
2022/12/26 05:50:12;;;;;;;6.22;0.47;;;9.50;99.90;;;;;;5104022;28;20027;-68
2022/12/26 05:52:37;;;;;;;2.42;0.22;;;9.30;99.90;;;;;;5109128;28;20077;-68
2022/12/26 05:55:03;;;;;;;1.60;0.20;;;9.30;99.90;;;;;;5110462;28;20058;-69
2022/12/26 05:57:29;;;;;;;2.47;0.25;;;9.30;99.90;;;;;;5107388;28;20090;-69
2022/12/26 05:59:55;;;;;;;1.67;0.20;;;9.30;99.90;;;;;;5093796;28;20022;-68
2022/12/26 06:02:20;;;;;;;1.60;0.20;;;9.20;99.90;;;;;;5110619;28;20122;-68
2022/12/26 06:04:46;;;;;;;1.38;0.20;;;9.30;99.90;;;;;;5108427;28;20024;-67
2022/12/26 06:07:12;;;;;;;0.50;0.15;;;9.20;99.90;;;;;;5108077;28;20055;-68
2022/12/26 06:09:37;;;;;;;2.90;0.85;;;9.20;99.90;;;;;;5108425;28;20023;-68
2022/12/26 06:12:03;;;;;;;1.90;0.30;;;9.10;99.90;;;;;;5108792;28;20039;-68
2022/12/26 06:14:29;;;;;;;1.83;0.20;;;9.10;99.90;;;;;;5099851;28;20047;-68
2022/12/26 06:16:55;;;;;;;0.95;0.30;;;9.00;99.90;;;;;;5089843;28;20024;-69
2022/12/26 06:19:21;;;;;;;1.45;0.20;;;8.90;99.90;;;;;;5110027;28;20028;-68
2022/12/26 06:21:47;;;;;;;0.35;0.10;;;8.70;99.90;;;;;;5099906;28;20034;-68
2022/12/26 06:24:13;;;;;;;0.75;0.40;;;8.60;99.90;;;;;;5112743;27;20023;-68
2022/12/26 06:26:39;;;;;;;1.17;0.10;;;8.60;99.90;;;;;;5111696;28;20474;-68
2022/12/26 06:29:05;;;;;;;1.23;0.10;;;8.50;99.90;;;;;;5105188;28;20056;-69
2022/12/26 06:31:31;;;;;;;1.13;0.30;;;8.50;99.90;;;;;;5111478;28;20088;-68
2022/12/26 06:33:57;;;;;;;0.93;0.20;;;8.50;99.90;;;;;;5110725;28;20066;-68
2022/12/26 06:36:28;;;;;;;0.77;0.47;;;8.50;99.90;;;;;;5110653;28;20098;-68
2022/12/26 06:38:55;;;;;;;1.25;0.38;;;8.50;99.90;;;;;;5101407;28;20447;-68
2022/12/26 06:41:22;;;;;;;1.30;0.40;;;8.50;99.90;;;;;;5111285;28;20147;-69
2022/12/26 06:43:49;;;;;;;0.10;0.10;;;8.50;99.90;;;;;;5114425;28;20063;-68
2022/12/26 06:46:19;;;;;;;2.30;0.43;;;8.50;99.90;;;;;;5111976;28;20028;-69
2022/12/26 06:48:45;;;;;;;2.05;0.20;;;8.50;99.90;;;;;;5105347;28;20027;-68
2022/12/26 06:51:23;;;;;;;2.78;0.20;;;8.40;99.90;;;;;;5113353;28;20038;-68
2022/12/26 06:53:49;;;;;;;1.65;0.20;;;8.40;99.90;;;;;;5102009;28;20040;-67
2022/12/26 06:56:18;;;;;;;0.10;0.10;;;8.30;99.90;;;;;;5102893;28;20020;-67
2022/12/26 06:58:43;;;;;;;0.77;0.20;;;8.30;99.90;;;;;;5098215;28;20019;-68
2022/12/26 07:01:14;;;;;;;1.20;0.20;;;8.40;99.90;;;;;;5097201;28;20987;-68
2022/12/26 07:03:40;;;;;;;1.85;0.47;;;8.40;99.90;;;;;;5102769;28;20387;-68
2022/12/26 07:06:11;;;;;;;1.40;0.20;;;8.30;99.90;;;;;;5107788;28;20494;-68
2022/12/26 07:08:37;;;;;;;1.10;0.30;;;8.40;99.90;;;;;;5105040;28;20032;-70
2022/12/26 07:11:02;;;;;;;3.35;0.20;;;8.50;99.90;;;;;;5109156;28;20088;-69
2022/12/26 07:13:28;;;;;;;1.48;0.20;;;8.50;99.90;;;;;;5107032;28;20027;-69
2022/12/26 07:15:54;;;;;;;1.30;0.10;;;8.60;99.90;;;;;;5113909;27;20118;-68
2022/12/26 07:18:20;;;;;;;2.60;0.17;;;8.50;99.90;;;;;;5113465;27;20031;-69
2022/12/26 07:20:45;;;;;;;5.60;0.40;;;8.40;99.90;;;;;;5110906;27;20110;-68
2022/12/26 07:23:11;;;;;;;0.22;0.00;;;8.30;99.90;;;;;;5108456;27;20027;-69
2022/12/26 07:25:37;;;;;;;1.05;0.10;;;8.30;99.90;;;;;;5110276;28;20026;-68
2022/12/26 07:28:03;;;;;;;0.47;0.10;;;8.20;99.90;;;;;;5105073;28;20042;-69
2022/12/26 07:30:28;;;;;;;1.55;0.10;;;8.10;99.90;;;;;;5110525;27;20024;-68
2022/12/26 07:32:54;;;;;;;2.20;0.30;;;8.00;99.90;;;;;;5112574;27;20114;-67
2022/12/26 07:35:20;;;;;;;0.80;0.13;;;7.90;99.90;;;;;;5095124;28;20057;-69
2022/12/26 07:37:45;;;;;;;0.45;0.10;;;7.80;99.90;;;;;;5118629;27;20019;-68
2022/12/26 07:40:12;;;;;;;2.65;0.45;;;7.70;99.90;;;;;;5109224;28;20035;-69
2022/12/26 07:42:37;;;;;;;0.32;0.10;;;7.60;99.90;;;;;;5107319;28;20464;-71
2022/12/26 07:45:03;;;;;;;3.67;0.30;;;7.40;99.90;;;;;;5114986;27;20035;-69
2022/12/26 07:47:29;;;;;;;3.63;0.20;;;7.30;99.90;;;;;;5109530;27;20586;-69
2022/12/26 07:49:55;;;;;;;1.85;0.50;;;7.20;99.90;;;;;;5110745;27;20498;-70
2022/12/26 07:52:21;;;;;;;3.90;0.30;;;7.20;99.90;;;;;;5109725;28;20477;-68
2022/12/26 07:54:47;;;;;;;0.98;0.10;;;7.20;99.90;;;;;;5107857;27;20509;-68
2022/12/26 07:57:13;;;;;;;2.60;0.17;;;7.30;99.90;;;;;;5111436;27;20031;-69
2022/12/26 07:59:38;;;;;;;1.88;0.40;;;7.30;99.90;;;;;;5110679;27;20035;-68
2022/12/26 08:02:04;;;;;;;2.28;0.25;;;7.30;99.90;;;;;;5111288;27;20148;-68
2022/12/26 08:04:31;;;;;;;1.52;0.20;;;7.30;99.90;;;;;;5102298;27;20020;-68
2022/12/26 08:06:57;;;;;;;1.05;0.13;;;7.30;99.90;;;;;;5107685;27;20127;-68
2022/12/26 08:09:22;;;;;;;2.25;0.50;;;7.20;99.90;;;;;;5104938;28;20118;-69
2022/12/26 08:11:48;;;;;;;4.10;0.40;;;7.10;99.90;;;;;;5113440;27;20023;-68
2022/12/26 08:14:15;;;;;;;2.70;0.43;;;7.00;99.90;;;;;;5113364;27;20550;-68
2022/12/26 08:16:42;;;;;;;1.95;0.40;;;6.80;99.90;;;;;;5116819;27;20466;-68
2022/12/26 08:19:08;;;;;;;1.77;0.30;;;6.70;99.90;;;;;;5110800;27;20054;-72
2022/12/26 08:21:34;;;;;;;1.75;0.13;;;6.60;99.90;;;;;;5106675;27;20076;-69
2022/12/26 08:23:59;;;;;;;2.50;0.35;;;6.40;99.90;;;;;;5129356;27;20044;-68
2022/12/26 08:26:25;;;;;;;4.65;0.75;;;6.30;99.90;;;;;;5109170;27;20019;-68
2022/12/26 08:28:51;;;;;;;2.60;0.30;;;6.20;99.90;;;;;;5112638;27;20065;-69
2022/12/26 08:31:18;;;;;;;4.50;0.43;;;6.10;99.90;;;;;;5109788;28;20030;-66
2022/12/26 08:33:44;;;;;;;2.65;0.50;;;6.00;99.90;;;;;;5110553;27;20087;-69
2022/12/26 08:36:12;;;;;;;1.55;0.30;;;5.90;99.90;;;;;;5105435;28;20040;-68
2022/12/26 08:38:39;;;;;;;4.72;0.50;;;5.80;99.90;;;;;;5104517;28;20035;-68
2022/12/26 08:41:05;;;;;;;1.77;0.40;;;5.70;99.90;;;;;;5117098;27;20356;-68
2022/12/26 08:43:31;;;;;;;4.40;0.50;;;5.60;99.90;;;;;;5107074;28;20120;-68
2022/12/26 08:46:15;;;;;;;8.18;0.75;;;5.50;99.90;;;;;;5117357;27;20492;-69
2022/12/26 08:48:42;;;;;;;2.17;0.55;;;5.50;99.90;;;;;;5104406;28;20027;-68
2022/12/26 08:51:18;;;;;;;3.33;0.60;;;5.40;99.90;;;;;;5116108;27;20019;-68
2022/12/26 08:53:44;;;;;;;3.53;0.60;;;5.30;99.90;;;;;;5114586;27;20391;-69
2022/12/26 08:56:13;;;;;;;8.85;0.85;;;5.20;99.90;;;;;;5110518;27;20487;-65
2022/12/26 08:58:39;;;;;;;6.55;0.80;;;5.10;99.90;;;;;;5110984;27;20034;-69
2022/12/26 09:01:29;;;;;;;2.72;0.22;;;5.10;99.90;;;;;;5112148;27;20454;-67
2022/12/26 09:03:57;;;;;;;2.90;0.40;;;5.00;99.90;;;;;;5098121;27;20031;-66
2022/12/26 09:06:24;;;;;;;6.43;1.17;;;4.90;99.90;;;;;;5116448;27;20032;-68
2022/12/26 09:08:49;;;;;;;4.05;0.68;;;4.90;99.90;;;;;;5107751;28;20055;-65
2022/12/26 09:11:18;;;;;;;4.80;0.63;;;4.80;99.90;;;;;;5111644;27;20066;-66
2022/12/26 09:13:45;;;;;;;2.30;0.50;;;4.70;99.90;;;;;;5113228;27;20052;-66
2022/12/26 09:16:12;;;;;;;3.17;0.60;;;4.70;99.90;;;;;;5104865;28;20036;-67
2022/12/26 09:18:38;;;;;;;4.65;0.47;;;4.80;99.90;;;;;;5109831;27;20051;-66
2022/12/26 09:21:07;;;;;;;4.18;0.50;;;4.80;99.90;;;;;;5111080;27;20028;-66
2022/12/26 09:23:34;;;;;;;6.00;0.95;;;4.70;99.90;;;;;;5106054;27;20042;-66
2022/12/26 09:26:12;;;;;;;3.85;0.90;;;4.80;99.90;;;;;;5112474;27;20066;-67
2022/12/26 09:28:38;;;;;;;3.33;0.75;;;4.80;99.90;;;;;;5107489;27;20032;-67
2022/12/26 09:31:07;;;;;;;1.42;0.90;;;5.00;99.90;;;;;;5114102;27;20103;-65
2022/12/26 09:33:36;;;;;;;5.22;0.90;;;5.20;99.90;;;;;;5114277;27;20092;-66
2022/12/26 09:36:04;;;;;;;5.28;0.65;;;5.30;99.90;;;;;;5103126;28;20038;-67
2022/12/26 09:38:30;;;;;;;5.78;0.73;;;5.40;99.90;;;;;;5105744;28;20028;-67
2022/12/26 09:41:03;;;;;;;5.55;1.20;;;5.40;99.90;;;;;;5102922;28;20496;-66
2022/12/26 09:43:47;;;;;;;7.10;0.88;;;5.40;99.90;;;;;;5099500;28;20556;-67
2022/12/26 09:46:38;;;;;;;3.13;1.27;;;5.50;99.90;;;;;;5095621;28;20032;-67
2022/12/26 09:49:17;;;;;;;2.05;0.65;;;5.70;99.90;;;;;;5103918;28;20024;-67
2022/12/26 09:51:50;;;;;;;4.80;0.55;;;5.70;99.90;;;;;;5100282;28;20042;-66
2022/12/26 09:54:32;;;;;;;4.53;1.10;;;5.90;99.90;;;;;;5100398;28;20578;-66
2022/12/26 09:57:00;;;;;;;3.58;0.57;;;6.00;99.90;;;;;;5106007;28;20028;-67
2022/12/26 09:59:27;;;;;;;4.28;0.90;;;6.00;99.90;;;;;;5104579;28;20092;-67
2022/12/26 10:01:53;;;;;;;5.75;2.08;;;6.00;99.90;;;;;;5108646;28;20098;-66
2022/12/26 10:04:29;;;;;;;7.43;0.88;;;6.10;99.90;;;;;;5103649;28;20536;-67
2022/12/26 10:07:22;;;;;;;1.45;0.70;;;6.00;99.90;;;;;;5100681;28;20450;-66
2022/12/26 10:10:07;;;;;;;4.47;0.70;;;6.00;99.90;;;;;;5105872;28;20042;-67
2022/12/26 10:12:45;;;;;;;7.70;1.60;;;6.00;99.90;;;;;;5102637;28;20047;-68
2022/12/26 10:15:31;;;;;;;5.30;0.52;;;5.90;99.90;;;;;;5105628;28;20051;-67
2022/12/26 10:18:25;;;;;;;4.10;0.40;;;5.90;99.90;;;;;;5105795;28;20040;-65
2022/12/26 10:20:53;;;;;;;2.08;0.57;;;5.90;99.90;;;;;;5104293;28;20511;-68
2022/12/26 10:23:28;;;;;;;2.28;0.30;;;6.10;99.90;;;;;;5109296;28;20042;-67
2022/12/26 10:26:14;;;;;;;0.70;0.20;;;6.20;99.90;;;;;;5105789;28;20035;-66
2022/12/26 10:28:48;;;;;;;1.83;0.25;;;6.30;99.90;;;;;;5095218;28;20022;-66
2022/12/26 10:31:26;;;;;;;1.38;0.15;;;6.40;99.90;;;;;;5107240;28;20032;-66
2022/12/26 10:34:13;;;;;;;0.30;0.00;;;6.40;99.90;;;;;;5098389;28;20034;-69
2022/12/26 10:36:49;;;;;;;1.75;0.15;;;6.40;99.90;;;;;;5099008;28;20035;-67
2022/12/26 10:39:23;;;;;;;0.28;0.10;;;6.60;99.90;;;;;;5101245;28;20126;-67
2022/12/26 10:41:53;;;;;;;3.17;0.85;;;6.60;99.90;;;;;;5092970;28;20028;-67
2022/12/26 10:44:19;;;;;;;0.50;0.22;;;6.60;99.90;;;;;;5103558;28;20078;-68
2022/12/26 10:47:02;;;;;;;1.27;0.35;;;6.60;99.90;;;;;;5107262;28;20023;-66
2022/12/26 10:49:28;;;;;;;2.95;0.30;;;6.60;99.90;;;;;;5105110;28;20028;-66
2022/12/26 10:51:57;;;;;;;0.55;0.13;;;6.80;99.90;;;;;;5108102;28;20027;-67
2022/12/26 10:54:23;;;;;;;0.73;0.30;;;6.90;99.90;;;;;;5112316;28;20040;-67
2022/12/26 10:56:50;;;;;;;1.10;0.20;;;6.90;99.90;;;;;;5110981;28;20490;-67
2022/12/26 10:59:22;;;;;;;1.50;0.17;;;7.00;99.90;;;;;;5105573;28;20050;-67
2022/12/26 11:01:49;;;;;;;2.45;0.30;;;7.10;99.90;;;;;;5110147;28;20058;-66
2022/12/26 11:04:25;;;;;;;1.13;0.25;;;7.10;99.90;;;;;;5108490;28;20039;-68
2022/12/26 11:06:53;;;;;;;0.40;0.20;;;7.10;99.90;;;;;;5095800;28;20044;-66
2022/12/26 11:09:34;;;;;;;2.25;0.30;;;7.20;99.90;;;;;;5103791;28;20027;-67
2022/12/26 11:12:00;;;;;;;1.38;0.10;;;7.10;99.90;;;;;;5110774;28;20395;-66
2022/12/26 11:14:31;;;;;;;3.35;0.63;;;7.10;99.90;;;;;;5112232;28;20039;-66
2022/12/26 11:17:00;;;;;;;2.53;0.47;;;7.10;99.90;;;;;;5106230;28;20040;-67
2022/12/26 11:19:37;;;;;;;1.23;0.25;;;7.10;99.90;;;;;;5108104;28;20031;-64
2022/12/26 11:22:25;;;;;;;1.83;0.60;;;7.00;99.90;;;;;;5109752;28;20020;-67
2022/12/26 11:25:09;;;;;;;1.45;0.30;;;7.10;99.90;;;;;;5112086;27;20027;-67
2022/12/26 11:27:43;;;;;;;3.08;0.38;;;7.10;99.90;;;;;;5117338;27;20043;-68
2022/12/26 11:30:30;;;;;;;2.83;1.08;;;7.20;99.90;;;;;;5094609;28;20032;-67
2022/12/26 11:33:21;;;;;;;5.55;0.70;;;7.20;99.90;;;;;;5099094;28;20077;-68
2022/12/26 11:35:52;;;;;;;3.35;0.60;;;7.10;99.90;;;;;;5095417;28;20110;-67
2022/12/26 11:38:35;;;;;;;3.95;0.70;;;7.20;99.90;;;;;;5112634;28;20031;-67
2022/12/26 11:43:51;;;;;;;3.92;0.95;;;7.60;99.90;;;;;;5110288;28;20039;-67
2022/12/26 11:46:16;;;;;;;3.30;0.47;;;7.80;99.90;;;;;;5111817;28;20484;-68
2022/12/26 11:48:50;;;;;;;3.53;0.70;;;7.80;99.90;;;;;;5110846;28;20032;-68
2022/12/26 11:51:16;;;;;;;2.50;0.70;;;8.00;99.90;;;;;;5111509;28;20071;-67
2022/12/26 11:53:41;;;;;;;3.33;0.60;;;8.80;99.90;;;;;;5110642;28;20126;-67
2022/12/26 11:56:08;;;;;;;2.67;0.70;;;9.80;99.90;;;;;;5112073;28;20055;-67
2022/12/26 11:58:35;;;;;;;3.47;0.63;;;10.40;99.90;;;;;;5110765;28;20036;-67
2022/12/26 12:01:00;;;;;;;1.33;0.50;;;10.70;99.90;;;;;;5112301;28;20360;-68
2022/12/26 12:03:35;;;;;;;3.05;0.60;;;11.10;99.90;;;;;;5110735;28;20080;-68
2022/12/26 12:06:39;;;;;;;3.65;0.70;;;11.40;99.90;;;;;;5113507;28;20055;-68
2022/12/26 12:09:29;;;;;;;2.88;0.80;;;11.80;99.90;;;;;;5115012;28;20077;-67
2022/12/26 12:12:21;;;;;;;2.83;0.40;;;11.70;99.90;;;;;;5104949;28;20016;-67
2022/12/26 12:15:02;;;;;;;2.85;0.65;;;11.80;99.90;;;;;;5112898;28;20071;-67
2022/12/26 12:17:38;;;;;;;6.13;0.70;;;11.30;99.90;;;;;;5105483;28;20048;-68
2022/12/26 12:20:30;;;;;;;4.60;0.73;;;11.40;99.90;;;;;;5100714;28;20027;-68
2022/12/26 12:23:20;;;;;;;3.97;0.98;;;11.80;99.90;;;;;;5106321;28;20361;-68
2022/12/26 12:26:16;;;;;;;1.75;0.30;;;11.70;99.90;;;;;;5108964;28;20027;-67
2022/12/26 12:28:54;;;;;;;3.10;0.60;;;12.10;99.90;;;;;;5100055;28;20019;-68
2022/12/26 12:31:38;;;;;;;6.10;0.70;;;11.80;99.90;;;;;;5110447;28;20051;-68
2022/12/26 12:34:21;;;;;;;1.88;0.60;;;12.20;99.90;;;;;;5104211;28;20383;-68
2022/12/26 12:36:56;;;;;;;6.65;0.60;;;12.50;99.90;;;;;;5103601;28;20120;-67
2022/12/26 12:39:21;;;;;;;1.83;0.47;;;12.30;99.90;;;;;;5111542;28;20498;-67
2022/12/26 12:41:50;;;;;;;2.10;0.77;;;12.40;99.90;;;;;;5103594;28;20024;-68
2022/12/26 12:44:47;;;;;;;2.38;0.75;;;12.70;99.90;;;;;;5111534;28;20023;-68
2022/12/26 12:47:37;;;;;;;3.65;0.55;;;12.80;99.90;;;;;;5106042;28;20034;-68
2022/12/26 12:50:08;;;;;;;4.75;0.70;;;12.60;99.90;;;;;;5103761;28;20027;-68
2022/12/26 12:52:58;;;;;;;3.45;0.38;;;12.40;99.90;;;;;;5108806;28;20431;-68
2022/12/26 12:55:42;;;;;;;3.15;0.60;;;12.20;99.90;;;;;;5108786;28;20039;-67
2022/12/26 12:58:28;;;;;;;2.38;0.60;;;12.30;99.90;;;;;;5109248;27;20106;-67
2022/12/26 13:01:04;;;;;;;5.18;0.63;;;12.30;99.90;;;;;;5105255;27;20019;-70
2022/12/26 13:03:40;;;;;;;2.58;0.40;;;11.50;99.90;;;;;;5106014;28;20028;-67
2022/12/26 13:06:28;;;;;;;2.85;0.68;;;11.20;99.90;;;;;;5110922;28;20067;-67
2022/12/26 13:09:18;;;;;;;3.78;0.65;;;10.60;99.90;;;;;;5108984;28;20126;-68
2022/12/26 13:11:56;;;;;;;5.38;1.90;;;10.30;99.90;;;;;;5107849;28;20027;-67
2022/12/26 13:14:26;;;;;;;1.13;0.40;;;10.10;99.90;;;;;;5109471;28;20039;-67
2022/12/26 13:17:10;;;;;;;1.35;0.40;;;10.10;99.90;;;;;;5109378;28;20032;-67
2022/12/26 13:19:41;;;;;;;5.28;0.50;;;10.60;98.00;;;;;;5087529;28;20030;-68
2022/12/26 13:22:22;;;;;;;2.85;0.50;;;11.60;98.40;;;;;;5110848;28;20096;-68
2022/12/26 13:24:53;;;;;;;1.48;0.60;;;11.40;96.00;;;;;;5107822;28;20035;-67
2022/12/26 13:27:24;;;;;;;1.48;0.40;;;11.60;96.30;;;;;;5110910;28;20032;-69
2022/12/26 13:29:51;;;;;;;1.85;0.20;;;11.20;97.50;;;;;;5108183;28;20436;-66
2022/12/26 13:32:31;;;;;;;1.23;0.35;;;10.90;98.60;;;;;;5109950;28;20425;-68
2022/12/26 13:35:01;;;;;;;1.98;0.60;;;11.10;96.90;;;;;;5107137;28;20047;-66
2022/12/26 13:37:39;;;;;;;3.60;0.60;;;11.50;97.00;;;;;;5097980;28;20110;-67
2022/12/26 13:40:11;;;;;;;1.67;0.60;;;11.70;96.90;;;;;;5110491;27;20387;-70
2022/12/26 13:45:36;;;;;;;7.63;0.90;;;12.60;99.90;;;;;;5108915;28;20435;-67
2022/12/26 13:48:14;;;;;;;3.60;0.75;;;12.80;99.90;;;;;;5110203;28;20502;-67
2022/12/26 13:50:59;;;;;;;4.38;0.50;;;12.40;99.90;;;;;;5108001;28;20058;-67
2022/12/26 13:53:24;;;;;;;2.70;0.57;;;12.10;97.80;;;;;;5110378;28;20031;-67
2022/12/26 13:56:16;;;;;;;3.75;0.40;;;12.40;97.10;;;;;;5108026;28;20042;-68
2022/12/26 13:59:00;;;;;;;3.22;0.50;;;12.40;96.30;;;;;;5059804;28;20093;-68
2022/12/26 14:01:40;;;;;;;2.60;0.63;;;12.40;96.00;;;;;;5109581;28;20039;-67
2022/12/26 14:04:34;;;;;;;2.60;0.70;;;12.40;97.80;;;;;;5105112;28;20027;-68
2022/12/26 14:07:02;;;;;;;3.83;0.85;;;12.70;96.40;;;;;;5101004;28;20055;-68
2022/12/26 14:09:37;;;;;;;1.70;0.60;;;12.40;95.80;;;;;;5109872;28;20113;-68
2022/12/26 14:12:17;;;;;;;3.17;0.75;;;12.50;97.20;;;;;;5099817;28;20039;-67
2022/12/26 14:14:54;;;;;;;2.90;0.88;;;12.50;97.70;;;;;;5106785;28;20043;-68
2022/12/26 14:17:38;;;;;;;5.75;1.30;;;12.80;97.10;;;;;;5109890;28;20458;-67
2022/12/26 14:20:25;;;;;;;3.13;0.95;;;13.00;97.20;;;;;;5104579;28;20023;-67
2022/12/26 14:23:15;;;;;;;2.88;1.00;;;13.00;97.20;;;;;;5105471;28;20076;-67
2022/12/26 14:26:04;;;;;;;2.28;0.82;;;13.40;96.20;;;;;;5107349;28;20071;-68
2022/12/26 14:29:00;;;;;;;3.92;0.80;;;13.10;97.10;;;;;;5067430;28;20050;-67
2022/12/26 14:31:51;;;;;;;6.35;1.42;;;12.80;96.50;;;;;;5109847;28;20034;-68
2022/12/26 14:34:44;;;;;;;3.50;0.68;;;12.30;98.40;;;;;;5091701;28;20036;-68
2022/12/26 14:37:20;;;;;;;10.15;1.52;;;12.20;99.90;;;;;;5103353;28;20020;-67
2022/12/26 14:39:54;;;;;;;5.88;0.85;;;12.30;99.90;;;;;;5096208;28;20480;-67
2022/12/26 14:45:33;;;;;;;5.22;0.88;;;11.90;99.90;;;;;;5102654;28;20047;-68
2022/12/26 14:47:59;;;;;;;5.65;0.85;;;11.50;99.90;;;;;;5105164;28;20375;-68
2022/12/26 14:50:31;;;;;;;8.55;0.90;;;11.30;99.90;;;;;;5107821;28;20028;-67
2022/12/26 14:53:26;;;;;;;5.63;0.80;;;10.50;99.90;;;;;;5106790;28;20019;-67
2022/12/26 14:56:06;;;;;;;4.95;0.77;;;10.00;99.90;;;;;;5109923;28;20506;-67
2022/12/26 14:58:46;;;;;;;7.82;1.08;;;9.50;99.90;;;;;;5110741;28;20028;-67
2022/12/26 15:01:11;;;;;;;7.70;0.93;;;9.00;99.90;;;;;;5111017;28;20023;-67
2022/12/26 15:03:46;;;;;;;3.72;0.65;;;8.90;99.90;;;;;;5114361;28;20107;-67
2022/12/26 15:06:17;;;;;;;4.80;1.10;;;8.70;99.90;;;;;;5109520;28;20489;-67
2022/12/26 15:09:20;;;;;;;1.75;0.50;;;8.60;99.90;;;;;;5111868;28;20020;-68
2022/12/26 15:11:58;;;;;;;6.88;0.85;;;8.50;99.90;;;;;;5107746;28;20132;-67
2022/12/26 15:14:57;;;;;;;4.72;0.90;;;8.50;99.90;;;;;;5110928;28;20498;-67
2022/12/26 15:17:55;;;;;;;6.18;0.77;;;8.40;99.90;;;;;;5105184;28;20087;-67
2022/12/26 15:20:58;;;;;;;6.07;1.15;;;8.30;99.90;;;;;;5108283;28;20035;-68
2022/12/26 15:23:52;;;;;;;4.38;0.80;;;8.20;99.90;;;;;;5091915;28;20487;-66
2022/12/26 15:26:44;;;;;;;6.88;0.90;;;8.10;99.90;;;;;;5109991;28;20046;-67
2022/12/26 15:29:33;;;;;;;3.05;0.75;;;8.00;99.90;;;;;;5113723;28;20138;-69
2022/12/26 15:32:27;;;;;;;3.53;0.70;;;7.90;99.90;;;;;;5011667;28;20034;-69
2022/12/26 15:35:20;;;;;;;5.22;0.85;;;7.70;99.90;;;;;;5002607;28;20034;-68